createdAt,value
2023-05-22T00:01:28.249Z,101327.16
2023-05-22T00:03:55.574Z,101327.75
2023-05-22T00:06:23.528Z,101322.38
2023-05-22T00:08:50.647Z,101330.22
2023-05-22T00:11:17.625Z,101315.88
2023-05-22T00:13:44.713Z,101323.22
2023-05-22T00:16:11.745Z,101310.50
2023-05-22T00:18:42.520Z,101314.59
2023-05-22T00:21:10.776Z,101321.97
2023-05-22T00:23:37.990Z,101319.81
2023-05-22T00:26:05.094Z,101305.72
2023-05-22T00:28:32.181Z,101308.72
2023-05-22T00:30:59.196Z,101310.66
2023-05-22T00:33:26.245Z,101304.75
2023-05-22T00:35:53.266Z,101306.94
2023-05-22T00:38:32.824Z,101308.84
2023-05-22T00:41:03.023Z,101301.28
2023-05-22T00:43:30.350Z,101307.84
2023-05-22T00:45:58.286Z,101310.31
2023-05-22T00:48:26.907Z,101300.59
2023-05-22T00:50:57.477Z,101303.38
2023-05-22T00:53:26.248Z,101300.13
2023-05-22T00:55:54.720Z,101298.03
2023-05-22T00:58:23.037Z,101299.41
2023-05-22T01:00:50.248Z,101308.44
2023-05-22T01:03:19.021Z,101307.38
2023-05-22T01:05:46.101Z,101302.53
2023-05-22T01:08:13.212Z,101300.13
2023-05-22T01:10:41.032Z,101300.97
2023-05-22T01:13:39.865Z,101301.53
2023-05-22T01:16:29.686Z,101291.84
2023-05-22T01:19:31.735Z,101306.00
2023-05-22T01:22:28.977Z,101300.09
2023-05-22T01:25:17.111Z,101304.22
2023-05-22T01:28:16.439Z,101296.34
2023-05-22T01:31:08.153Z,101297.78
2023-05-22T01:34:02.720Z,101286.41
2023-05-22T01:36:35.145Z,101291.06
2023-05-22T01:39:06.022Z,101294.91
2023-05-22T01:41:34.552Z,101289.53
2023-05-22T01:44:02.224Z,101295.50
2023-05-22T01:46:30.356Z,101297.97
2023-05-22T01:48:58.589Z,101291.72
2023-05-22T01:52:27.840Z,101290.41
2023-05-22T01:55:13.490Z,101292.34
2023-05-22T01:57:56.036Z,101286.94
2023-05-22T02:00:26.212Z,101296.75
2023-05-22T02:03:08.063Z,101295.41
2023-05-22T02:05:38.828Z,101284.31
2023-05-22T02:08:06.521Z,101298.44
2023-05-22T02:10:35.682Z,101298.16
2023-05-22T02:13:03.037Z,101295.19
2023-05-22T02:15:30.651Z,101289.78
2023-05-22T02:18:03.212Z,101290.63
2023-05-22T02:20:30.335Z,101299.56
2023-05-22T02:22:58.118Z,101287.66
2023-05-22T02:25:25.248Z,101293.09
2023-05-22T02:27:52.221Z,101286.88
2023-05-22T02:30:20.512Z,101292.56
2023-05-22T02:32:50.433Z,101288.22
2023-05-22T02:35:17.613Z,101289.88
2023-05-22T02:37:45.514Z,101291.50
2023-05-22T02:40:15.456Z,101296.91
2023-05-22T02:42:42.641Z,101292.03
2023-05-22T02:45:10.672Z,101290.97
2023-05-22T02:47:37.824Z,101287.97
2023-05-22T02:50:05.417Z,101284.47
2023-05-22T02:52:35.209Z,101285.81
2023-05-22T02:55:02.245Z,101287.19
2023-05-22T02:57:29.212Z,101278.78
2023-05-22T02:59:57.521Z,101284.50
2023-05-22T03:02:32.414Z,101280.69
2023-05-22T03:04:59.875Z,101280.97
2023-05-22T03:07:29.411Z,101283.97
2023-05-22T03:09:57.020Z,101274.22
2023-05-22T03:12:24.311Z,101276.09
2023-05-22T03:14:51.312Z,101276.38
2023-05-22T03:17:18.319Z,101273.94
2023-05-22T03:19:45.340Z,101275.03
2023-05-22T03:22:12.453Z,101265.56
2023-05-22T03:24:40.166Z,101264.47
2023-05-22T03:27:07.705Z,101262.03
2023-05-22T03:29:40.563Z,101275.84
2023-05-22T03:32:07.945Z,101259.06
2023-05-22T03:34:35.947Z,101260.16
2023-05-22T03:37:04.184Z,101265.81
2023-05-22T03:39:31.420Z,101264.47
2023-05-22T03:42:02.709Z,101276.38
2023-05-22T03:44:29.775Z,101268.00
2023-05-22T03:46:56.920Z,101275.31
2023-05-22T03:49:23.861Z,101273.13
2023-05-22T03:51:51.049Z,101276.38
2023-05-22T03:54:18.308Z,101273.69
2023-05-22T03:56:45.538Z,101269.88
2023-05-22T03:59:12.728Z,101275.03
2023-05-22T04:01:39.953Z,101281.25
2023-05-22T04:04:07.234Z,101265.00
2023-05-22T04:06:43.161Z,101266.91
2023-05-22T04:09:15.285Z,101260.69
2023-05-22T04:11:42.504Z,101257.44
2023-05-22T04:14:10.029Z,101265.56
2023-05-22T04:16:37.120Z,101263.66
2023-05-22T04:19:04.354Z,101261.47
2023-05-22T04:21:35.731Z,101254.72
2023-05-22T04:24:07.560Z,101260.41
2023-05-22T04:26:34.842Z,101261.50
2023-05-22T04:29:02.426Z,101264.75
2023-05-22T04:31:29.782Z,101268.25
2023-05-22T04:34:00.360Z,101273.94
2023-05-22T04:36:28.065Z,101268.50
2023-05-22T04:38:55.402Z,101265.50
2023-05-22T04:41:26.629Z,101260.34
2023-05-22T04:43:54.744Z,101261.16
2023-05-22T04:46:22.507Z,101264.91
2023-05-22T04:48:49.797Z,101265.75
2023-05-22T04:51:17.024Z,101266.00
2023-05-22T04:53:46.132Z,101276.25
2023-05-22T04:56:16.570Z,101265.66
2023-05-22T04:58:53.895Z,101258.81
2023-05-22T05:01:21.917Z,101252.31
2023-05-22T05:03:49.479Z,101260.97
2023-05-22T05:06:17.313Z,101258.47
2023-05-22T05:08:46.687Z,101262.78
2023-05-22T05:11:14.080Z,101252.72
2023-05-22T05:13:41.645Z,101251.06
2023-05-22T05:16:08.697Z,101259.16
2023-05-22T05:18:36.309Z,101252.59
2023-05-22T05:21:03.345Z,101249.56
2023-05-22T05:23:30.408Z,101249.53
2023-05-22T05:25:57.920Z,101257.59
2023-05-22T05:28:24.944Z,101249.69
2023-05-22T05:30:52.591Z,101258.63
2023-05-22T05:33:30.708Z,101259.94
2023-05-22T05:36:06.456Z,101257.75
2023-05-22T05:38:35.044Z,101267.47
2023-05-22T05:41:02.702Z,101266.09
2023-05-22T05:43:30.805Z,101263.91
2023-05-22T05:46:04.134Z,101268.78
2023-05-22T05:48:32.367Z,101272.53
2023-05-22T05:51:00.135Z,101266.28
2023-05-22T05:53:32.022Z,101275.25
2023-05-22T05:55:59.753Z,101275.22
2023-05-22T05:58:29.734Z,101273.81
2023-05-22T06:01:15.838Z,101270.25
2023-05-22T06:03:43.210Z,101264.00
2023-05-22T06:06:13.977Z,101269.63
2023-05-22T06:09:10.278Z,101266.56
2023-05-22T06:11:56.359Z,101263.22
2023-05-22T06:14:24.291Z,101263.91
2023-05-22T06:16:51.629Z,101250.25
2023-05-22T06:19:19.138Z,101251.00
2023-05-22T06:21:46.468Z,101258.84
2023-05-22T06:24:13.447Z,101257.09
2023-05-22T06:26:40.609Z,101253.97
2023-05-22T06:29:07.744Z,101249.53
2023-05-22T06:31:38.173Z,101247.25
2023-05-22T06:34:06.207Z,101243.88
2023-05-22T06:36:34.753Z,101247.78
2023-05-22T06:39:02.911Z,101249.25
2023-05-22T06:41:58.912Z,101248.50
2023-05-22T06:44:26.130Z,101251.88
2023-05-22T06:46:57.752Z,101253.84
2023-05-22T06:49:26.260Z,101250.06
2023-05-22T06:51:55.123Z,101250.31
2023-05-22T06:54:22.539Z,101252.47
2023-05-22T06:56:59.575Z,101237.81
2023-05-22T06:59:28.738Z,101246.50
2023-05-22T07:02:08.040Z,101236.69
2023-05-22T07:04:59.028Z,101237.69
2023-05-22T07:07:32.878Z,101233.53
2023-05-22T07:10:00.089Z,101230.81
2023-05-22T07:12:28.334Z,101232.22
2023-05-22T07:14:56.983Z,101237.47
2023-05-22T07:17:26.041Z,101232.47
2023-05-22T07:19:53.797Z,101239.19
2023-05-22T07:22:22.441Z,101232.56
2023-05-22T07:24:49.719Z,101230.06
2023-05-22T07:27:18.463Z,101226.97
2023-05-22T07:29:48.270Z,101230.25
2023-05-22T07:32:15.363Z,101223.78
2023-05-22T07:34:44.350Z,101221.13
2023-05-22T07:37:13.689Z,101226.19
2023-05-22T07:39:42.434Z,101214.94
2023-05-22T07:42:10.112Z,101209.38
2023-05-22T07:44:44.048Z,101213.31
2023-05-22T07:47:11.186Z,101210.56
2023-05-22T07:49:39.079Z,101215.09
2023-05-22T07:52:07.134Z,101208.97
2023-05-22T07:54:34.556Z,101214.81
2023-05-22T07:57:03.438Z,101205.94
2023-05-22T07:59:37.611Z,101203.28
2023-05-22T08:02:05.021Z,101208.25
2023-05-22T08:04:32.082Z,101213.84
2023-05-22T08:06:59.248Z,101202.81
2023-05-22T08:09:26.453Z,101197.69
2023-05-22T08:11:53.688Z,101197.38
2023-05-22T08:14:23.006Z,101206.97
2023-05-22T08:16:50.107Z,101196.88
2023-05-22T08:19:17.327Z,101201.50
2023-05-22T08:21:44.642Z,101212.00
2023-05-22T08:24:11.746Z,101182.88
2023-05-22T08:26:40.382Z,101194.56
2023-05-22T08:29:07.573Z,101185.84
2023-05-22T08:31:35.812Z,101187.59
2023-05-22T08:34:03.429Z,101178.75
2023-05-22T08:36:34.081Z,101176.19
2023-05-22T08:39:01.889Z,101166.50
2023-05-22T08:41:29.972Z,101158.56
2023-05-22T08:43:57.600Z,101158.41
2023-05-22T08:46:29.224Z,101160.00
2023-05-22T08:48:58.841Z,101152.75
2023-05-22T08:51:31.445Z,101155.09
2023-05-22T08:54:00.107Z,101162.53
2023-05-22T08:56:29.498Z,101163.03
2023-05-22T08:58:58.642Z,101145.25
2023-05-22T09:01:26.170Z,101147.91
2023-05-22T09:03:54.125Z,101138.56
2023-05-22T09:06:21.216Z,101146.03
2023-05-22T09:08:50.050Z,101140.16
2023-05-22T09:11:18.607Z,101121.31
2023-05-22T09:13:45.882Z,101115.03
2023-05-22T09:16:13.889Z,101118.56
2023-05-22T09:18:44.776Z,101127.81
2023-05-22T09:21:28.955Z,101124.31
2023-05-22T09:24:01.734Z,101113.63
2023-05-22T09:26:29.574Z,101104.66
2023-05-22T09:28:59.228Z,101105.09
2023-05-22T09:31:27.600Z,101102.81
2023-05-22T09:33:56.158Z,101109.34
2023-05-22T09:36:33.788Z,101100.38
2023-05-22T09:39:01.969Z,101098.50
2023-05-22T09:41:32.386Z,101104.13
2023-05-22T09:44:01.654Z,101099.06
2023-05-22T09:46:29.289Z,101103.44
2023-05-22T09:48:56.428Z,101097.84
2023-05-22T09:51:26.803Z,101101.84
2023-05-22T09:54:03.439Z,101102.16
2023-05-22T09:56:39.076Z,101096.13
2023-05-22T09:59:09.706Z,101104.44
2023-05-22T10:01:39.183Z,101102.41
2023-05-22T10:04:13.088Z,101094.00
2023-05-22T10:06:42.213Z,101092.91
2023-05-22T10:09:19.263Z,101095.00
2023-05-22T10:11:49.001Z,101091.94
2023-05-22T10:14:16.767Z,101098.34
2023-05-22T10:16:45.241Z,101086.38
2023-05-22T10:19:13.546Z,101076.47
2023-05-22T10:21:42.128Z,101078.00
2023-05-22T10:24:11.153Z,101085.53
2023-05-22T10:26:39.287Z,101079.94
2023-05-22T10:29:15.515Z,101072.66
2023-05-22T10:32:06.813Z,101073.28
2023-05-22T10:35:24.711Z,101058.56
2023-05-22T10:38:24.797Z,101055.97
2023-05-22T10:40:52.192Z,101058.84
2023-05-22T10:43:22.667Z,101057.97
2023-05-22T10:45:49.740Z,101047.94
2023-05-22T10:48:23.082Z,101039.31
2023-05-22T10:50:54.141Z,101047.06
2023-05-22T10:53:27.989Z,101042.53
2023-05-22T10:55:57.428Z,101042.56
2023-05-22T10:58:30.584Z,101035.50
2023-05-22T11:01:17.078Z,101036.75
2023-05-22T11:04:10.466Z,101031.91
2023-05-22T11:06:47.494Z,101026.69
2023-05-22T11:09:43.210Z,101034.50
2023-05-22T11:12:28.384Z,101031.06
2023-05-22T11:15:10.607Z,101027.28
2023-05-22T11:17:51.686Z,101023.25
2023-05-22T11:20:20.965Z,101022.00
2023-05-22T11:23:05.277Z,101020.63
2023-05-22T11:25:34.754Z,101026.16
2023-05-22T11:28:06.422Z,101018.66
2023-05-22T11:30:35.111Z,101011.22
2023-05-22T11:33:02.804Z,101020.16
2023-05-22T11:35:30.996Z,101021.38
2023-05-22T11:37:58.780Z,101016.69
2023-05-22T11:40:29.346Z,101013.81
2023-05-22T11:42:56.954Z,101009.63
2023-05-22T11:45:24.542Z,100996.84
2023-05-22T11:47:51.987Z,101003.47
2023-05-22T11:50:43.199Z,101008.28
2023-05-22T11:53:07.177Z,101001.94
2023-05-22T11:55:34.818Z,101001.91
2023-05-22T11:58:02.727Z,101001.53
2023-05-22T12:00:33.111Z,100996.25
2023-05-22T12:03:00.597Z,100991.00
2023-05-22T12:05:27.726Z,100992.88
2023-05-22T12:07:55.064Z,100985.75
2023-05-22T12:10:22.044Z,100991.56
2023-05-22T12:12:49.187Z,100986.97
2023-05-22T12:15:22.293Z,100983.19
2023-05-22T12:17:49.429Z,100987.38
2023-05-22T12:20:16.766Z,100974.72
2023-05-22T12:22:44.409Z,100972.00
2023-05-22T12:25:20.038Z,100978.59
2023-05-22T12:27:47.702Z,100972.16
2023-05-22T12:30:15.695Z,100972.88
2023-05-22T12:32:49.346Z,100967.84
2023-05-22T12:35:17.391Z,100972.97
2023-05-22T12:37:52.436Z,100969.00
2023-05-22T12:40:19.944Z,100966.31
2023-05-22T12:42:48.705Z,100964.41
2023-05-22T12:45:17.814Z,100958.75
2023-05-22T12:47:45.201Z,100965.69
2023-05-22T12:50:12.514Z,100958.50
2023-05-22T12:52:39.616Z,100958.16
2023-05-22T12:55:07.515Z,100954.25
2023-05-22T12:57:34.958Z,100946.41
2023-05-22T13:00:02.087Z,100955.09
2023-05-22T13:02:29.141Z,100952.69
2023-05-22T13:04:56.346Z,100949.94
2023-05-22T13:07:23.303Z,100947.38
2023-05-22T13:09:50.391Z,100935.91
2023-05-22T13:12:19.141Z,100937.69
2023-05-22T13:14:46.292Z,100932.84
2023-05-22T13:17:13.239Z,100935.44
2023-05-22T13:19:40.409Z,100938.16
2023-05-22T13:22:07.708Z,100932.25
2023-05-22T13:24:34.874Z,100944.53
2023-05-22T13:27:01.986Z,100929.53
2023-05-22T13:29:29.012Z,100921.91
2023-05-22T13:31:56.135Z,100915.06
2023-05-22T13:34:23.201Z,100919.91
2023-05-22T13:36:50.661Z,100912.00
2023-05-22T13:39:17.888Z,100926.94
2023-05-22T13:41:47.769Z,100922.84
2023-05-22T13:44:15.042Z,100913.75
2023-05-22T13:46:42.116Z,100909.38
2023-05-22T13:49:09.367Z,100915.97
2023-05-22T13:51:36.389Z,100901.69
2023-05-22T13:54:04.112Z,100902.09
2023-05-22T13:56:31.170Z,100898.28
2023-05-22T13:58:58.521Z,100900.53
2023-05-22T14:01:25.628Z,100897.09
2023-05-22T14:03:52.905Z,100896.91
2023-05-22T14:06:19.962Z,100909.06
2023-05-22T14:08:47.086Z,100890.78
2023-05-22T14:11:16.387Z,100902.19
2023-05-22T14:13:45.879Z,100906.75
2023-05-22T14:16:12.963Z,100900.63
2023-05-22T14:18:40.132Z,100899.84
2023-05-22T14:21:07.274Z,100894.31
2023-05-22T14:23:34.162Z,100894.38
2023-05-22T14:26:01.166Z,100898.88
2023-05-22T14:28:28.287Z,100898.97
2023-05-22T14:30:56.313Z,100890.28
2023-05-22T14:33:26.265Z,100887.03
2023-05-22T14:35:53.401Z,100884.34
2023-05-22T14:38:20.351Z,100881.81
2023-05-22T14:40:47.469Z,100874.66
2023-05-22T14:43:14.788Z,100868.94
2023-05-22T14:45:41.945Z,100877.94
2023-05-22T14:48:12.813Z,100882.03
2023-05-22T14:50:40.022Z,100871.91
2023-05-22T14:53:07.098Z,100874.44
2023-05-22T14:55:34.089Z,100872.75
2023-05-22T14:58:00.961Z,100864.38
2023-05-22T15:00:28.815Z,100859.63
2023-05-22T15:02:55.861Z,100868.56
2023-05-22T15:05:23.273Z,100868.78
2023-05-22T15:07:51.714Z,100869.09
2023-05-22T15:10:18.826Z,100864.59
2023-05-22T15:12:46.022Z,100850.53
2023-05-22T15:15:16.170Z,100852.97
2023-05-22T15:17:43.277Z,100855.53
2023-05-22T15:20:11.532Z,100845.91
2023-05-22T15:22:39.401Z,100836.88
2023-05-22T15:25:08.954Z,100844.47
2023-05-22T15:27:38.244Z,100840.03
2023-05-22T15:30:06.569Z,100841.28
2023-05-22T15:32:33.875Z,100834.13
2023-05-22T15:35:00.982Z,100835.38
2023-05-22T15:37:36.640Z,100832.91
2023-05-22T15:40:06.101Z,100831.19
2023-05-22T15:42:33.173Z,100831.38
2023-05-22T15:45:00.641Z,100818.72
2023-05-22T15:47:27.990Z,100832.31
2023-05-22T15:49:54.957Z,100831.56
2023-05-22T15:52:24.238Z,100825.25
2023-05-22T15:54:51.378Z,100810.19
2023-05-22T15:57:18.577Z,100811.75
2023-05-22T15:59:47.366Z,100802.22
2023-05-22T16:02:14.638Z,100808.56
2023-05-22T16:04:41.809Z,100803.38
2023-05-22T16:07:08.793Z,100815.56
2023-05-22T16:09:36.131Z,100813.03
2023-05-22T16:12:03.862Z,100812.78
2023-05-22T16:14:34.409Z,100813.00
2023-05-22T16:17:01.596Z,100802.81
2023-05-22T16:19:28.772Z,100811.69
2023-05-22T16:21:56.420Z,100807.84
2023-05-22T16:24:24.077Z,100810.47
2023-05-22T16:26:55.813Z,100808.00
2023-05-22T16:29:22.867Z,100807.81
2023-05-22T16:31:50.034Z,100811.94
2023-05-22T16:34:17.731Z,100808.56
2023-05-22T16:36:47.931Z,100809.81
2023-05-22T16:39:15.603Z,100811.09
2023-05-22T16:41:42.830Z,100811.56
2023-05-22T16:44:10.219Z,100810.00
2023-05-22T16:46:37.314Z,100811.25
2023-05-22T16:49:04.369Z,100804.16
2023-05-22T16:51:31.278Z,100809.59
2023-05-22T16:53:58.244Z,100820.56
2023-05-22T16:56:25.976Z,100819.34
2023-05-22T16:58:53.146Z,100821.25
2023-05-22T17:01:21.724Z,100818.44
2023-05-22T17:03:48.918Z,100824.78
2023-05-22T17:06:16.085Z,100829.50
2023-05-22T17:08:44.243Z,100817.25
2023-05-22T17:11:11.313Z,100826.34
2023-05-22T17:13:42.905Z,100818.97
2023-05-22T17:16:13.565Z,100834.28
2023-05-22T17:18:40.659Z,100822.09
2023-05-22T17:21:09.893Z,100829.28
2023-05-22T17:23:45.792Z,100829.34
2023-05-22T17:26:14.551Z,100825.13
2023-05-22T17:28:41.652Z,100829.97
2023-05-22T17:31:12.516Z,100830.91
2023-05-22T17:33:39.607Z,100833.22
2023-05-22T17:36:06.980Z,100832.78
2023-05-22T17:38:37.521Z,100829.38
2023-05-22T17:41:04.687Z,100826.75
2023-05-22T17:43:35.218Z,100833.50
2023-05-22T17:46:02.404Z,100818.19
2023-05-22T17:48:29.459Z,100829.66
2023-05-22T17:50:56.660Z,100815.13
2023-05-22T17:53:23.665Z,100810.44
2023-05-22T17:55:52.535Z,100813.13
2023-05-22T17:58:29.458Z,100816.22
2023-05-22T18:00:56.519Z,100811.88
2023-05-22T18:03:26.612Z,100810.72
2023-05-22T18:05:58.753Z,100810.25
2023-05-22T18:08:28.291Z,100809.38
2023-05-22T18:10:57.929Z,100819.84
2023-05-22T18:13:27.590Z,100817.19
2023-05-22T18:15:54.909Z,100811.31
2023-05-22T18:18:22.560Z,100815.16
2023-05-22T18:20:50.292Z,100807.63
2023-05-22T18:23:17.514Z,100810.78
2023-05-22T18:25:44.562Z,100804.44
2023-05-22T18:28:11.593Z,100809.19
2023-05-22T18:30:40.953Z,100809.09
2023-05-22T18:33:08.221Z,100805.44
2023-05-22T18:35:35.215Z,100805.34
2023-05-22T18:38:02.235Z,100809.13
2023-05-22T18:40:29.284Z,100811.91
2023-05-22T18:42:56.267Z,100816.16
2023-05-22T18:45:23.269Z,100819.28
2023-05-22T18:47:50.477Z,100813.97
2023-05-22T18:50:17.584Z,100816.56
2023-05-22T18:52:44.736Z,100808.38
2023-05-22T18:55:12.284Z,100813.25
2023-05-22T18:57:39.446Z,100821.47
2023-05-22T19:00:07.970Z,100829.22
2023-05-22T19:02:35.188Z,100827.44
2023-05-22T19:05:04.811Z,100819.09
2023-05-22T19:07:32.157Z,100829.22
2023-05-22T19:09:59.111Z,100833.69
2023-05-22T19:12:31.421Z,100834.81
2023-05-22T19:14:59.924Z,100822.09
2023-05-22T19:17:27.121Z,100829.44
2023-05-22T19:19:54.202Z,100840.69
2023-05-22T19:22:21.268Z,100828.94
2023-05-22T19:24:48.358Z,100829.84
2023-05-22T19:27:15.786Z,100838.19
2023-05-22T19:29:42.693Z,100846.63
2023-05-22T19:32:09.806Z,100841.47
2023-05-22T19:34:37.462Z,100834.63
2023-05-22T19:37:04.802Z,100846.31
2023-05-22T19:39:31.913Z,100843.56
2023-05-22T19:41:58.909Z,100837.25
2023-05-22T19:44:25.812Z,100843.16
2023-05-22T19:46:52.912Z,100848.88
2023-05-22T19:49:19.845Z,100853.31
2023-05-22T19:51:46.862Z,100844.59
2023-05-22T19:54:13.862Z,100850.72
2023-05-22T19:56:41.047Z,100855.50
2023-05-22T19:59:08.193Z,100857.03
2023-05-22T20:01:35.464Z,100853.44
2023-05-22T20:04:02.717Z,100865.59
2023-05-22T20:06:33.365Z,100857.13
2023-05-22T20:09:03.219Z,100861.09
2023-05-22T20:11:30.228Z,100860.22
2023-05-22T20:13:57.345Z,100861.25
2023-05-22T20:16:28.433Z,100866.75
2023-05-22T20:18:56.404Z,100871.50
2023-05-22T20:21:23.390Z,100869.47
2023-05-22T20:23:51.351Z,100872.09
2023-05-22T20:26:19.772Z,100867.06
2023-05-22T20:28:49.419Z,100869.69
2023-05-22T20:31:16.548Z,100869.28
2023-05-22T20:33:43.759Z,100866.47
2023-05-22T20:36:10.772Z,100856.78
2023-05-22T20:38:37.824Z,100869.19
2023-05-22T20:41:08.670Z,100870.66
2023-05-22T20:43:36.835Z,100876.47
2023-05-22T20:46:06.868Z,100866.78
2023-05-22T20:48:33.932Z,100860.44
2023-05-22T20:51:01.069Z,100876.00
2023-05-22T20:53:28.396Z,100869.63
2023-05-22T20:55:57.388Z,100868.91
2023-05-22T20:58:27.735Z,100866.06
2023-05-22T21:00:57.604Z,100866.44
2023-05-22T21:03:25.786Z,100875.78
2023-05-22T21:05:53.196Z,100861.25
2023-05-22T21:08:21.109Z,100871.38
2023-05-22T21:10:48.305Z,100874.97
2023-05-22T21:13:18.634Z,100868.59
2023-05-22T21:15:45.649Z,100882.25
2023-05-22T21:18:12.751Z,100876.88
2023-05-22T21:20:40.021Z,100868.00
2023-05-22T21:23:07.411Z,100871.56
2023-05-22T21:25:34.468Z,100868.13
2023-05-22T21:28:02.947Z,100866.28
2023-05-22T21:30:32.013Z,100869.88
2023-05-22T21:32:59.199Z,100875.09
2023-05-22T21:35:26.334Z,100864.59
2023-05-22T21:37:53.783Z,100871.09
2023-05-22T21:40:20.875Z,100868.47
2023-05-22T21:42:47.965Z,100868.25
2023-05-22T21:45:18.156Z,100862.59
2023-05-22T21:47:45.183Z,100865.88
2023-05-22T21:50:12.356Z,100871.63
2023-05-22T21:52:39.412Z,100871.41
2023-05-22T21:55:09.728Z,100862.50
2023-05-22T21:57:37.091Z,100862.22
2023-05-22T22:00:04.625Z,100871.22
2023-05-22T22:02:32.079Z,100863.66
2023-05-22T22:04:59.191Z,100859.13
2023-05-22T22:07:26.220Z,100863.72
2023-05-22T22:09:53.371Z,100856.97
2023-05-22T22:12:20.450Z,100855.94
2023-05-22T22:14:47.590Z,100861.66
2023-05-22T22:17:16.827Z,100854.09
2023-05-22T22:19:44.613Z,100853.88
2023-05-22T22:22:12.479Z,100844.38
2023-05-22T22:24:39.874Z,100853.06
2023-05-22T22:27:08.251Z,100851.97
2023-05-22T22:29:35.417Z,100841.72
2023-05-22T22:32:02.531Z,100843.31
2023-05-22T22:34:32.026Z,100832.78
2023-05-22T22:36:59.076Z,100839.00
2023-05-22T22:39:26.522Z,100833.34
2023-05-22T22:41:53.519Z,100837.66
2023-05-22T22:44:20.471Z,100834.16
2023-05-22T22:46:47.442Z,100827.91
2023-05-22T22:49:15.766Z,100825.78
2023-05-22T22:51:43.028Z,100828.22
2023-05-22T22:54:10.725Z,100816.31
2023-05-22T22:56:37.965Z,100826.06
2023-05-22T22:59:04.970Z,100828.50
2023-05-22T23:01:32.249Z,100821.50
2023-05-22T23:03:59.387Z,100820.94
2023-05-22T23:06:29.682Z,100816.31
2023-05-22T23:08:58.911Z,100806.84
2023-05-22T23:11:37.546Z,100811.19
2023-05-22T23:14:08.832Z,100804.16
2023-05-22T23:16:37.236Z,100806.56
2023-05-22T23:19:04.946Z,100805.53
2023-05-22T23:21:32.914Z,100802.81
2023-05-22T23:24:04.591Z,100799.31
2023-05-22T23:26:32.623Z,100800.16
2023-05-22T23:29:00.529Z,100792.03
2023-05-22T23:31:30.293Z,100798.03
2023-05-22T23:33:58.418Z,100788.56
2023-05-22T23:36:25.841Z,100787.81
2023-05-22T23:38:52.971Z,100785.97
2023-05-22T23:41:19.972Z,100780.00
2023-05-22T23:43:47.083Z,100781.38
2023-05-22T23:46:14.672Z,100774.91
2023-05-22T23:48:42.825Z,100769.25
2023-05-22T23:51:13.975Z,100769.56
2023-05-22T23:53:42.062Z,100764.41
2023-05-22T23:56:09.331Z,100753.06
2023-05-22T23:58:38.227Z,100754.97
